createdAt,value
2017-05-18T00:03:47.196Z,55.00
2017-05-18T00:06:15.502Z,55.20
2017-05-18T00:08:43.493Z,54.80
2017-05-18T00:11:11.821Z,55.00
2017-05-18T00:13:39.788Z,54.60
2017-05-18T00:16:08.160Z,55.40
2017-05-18T00:18:36.108Z,55.40
2017-05-18T00:21:04.043Z,54.70
2017-05-18T00:23:33.131Z,55.40
2017-05-18T00:26:01.440Z,55.50
2017-05-18T00:28:29.763Z,55.50
2017-05-18T00:30:58.863Z,55.00
2017-05-18T00:33:27.189Z,55.30
2017-05-18T00:35:55.134Z,55.50
2017-05-18T00:38:24.252Z,55.60
2017-05-18T00:43:21.075Z,55.40
2017-05-18T00:45:49.438Z,55.50
2017-05-18T00:48:17.378Z,55.80
2017-05-18T00:50:45.326Z,55.20
2017-05-18T00:58:12.251Z,54.70
2017-05-18T01:03:09.912Z,55.60
2017-05-18T01:05:38.231Z,55.30
2017-05-18T01:08:06.515Z,54.80
2017-05-18T01:10:34.442Z,56.60
2017-05-18T01:13:02.735Z,56.40
2017-05-18T01:15:32.107Z,56.60
2017-05-18T01:20:29.294Z,56.80
2017-05-18T01:22:57.907Z,56.70
2017-05-18T01:25:25.827Z,56.60
2017-05-18T01:27:54.120Z,56.90
2017-05-18T01:30:22.644Z,57.00
2017-05-18T01:32:50.640Z,56.60
2017-05-18T01:35:19.314Z,56.60
2017-05-18T01:37:47.655Z,56.30
2017-05-18T01:40:15.578Z,56.10
2017-05-18T01:42:43.899Z,56.60
2017-05-18T01:45:12.287Z,56.50
2017-05-18T01:50:09.156Z,56.50
2017-05-18T01:52:37.511Z,57.20
2017-05-18T01:55:06.548Z,57.40
2017-05-18T01:57:35.591Z,57.90
2017-05-18T02:00:03.955Z,57.90
2017-05-18T02:05:01.499Z,57.70
2017-05-18T02:07:29.860Z,57.60
2017-05-18T02:09:58.170Z,57.70
2017-05-18T02:12:26.091Z,57.40
2017-05-18T02:14:54.431Z,57.90
2017-05-18T02:17:23.463Z,57.90
2017-05-18T02:19:51.383Z,57.70
2017-05-18T02:22:19.974Z,57.40
2017-05-18T02:24:48.270Z,57.90
2017-05-18T02:27:16.562Z,58.50
2017-05-18T02:29:44.941Z,57.90
2017-05-18T02:32:13.312Z,57.80
2017-05-18T02:37:12.415Z,57.60
2017-05-18T02:39:41.103Z,57.60
2017-05-18T02:42:09.047Z,57.60
2017-05-18T02:47:07.295Z,58.10
2017-05-18T02:52:04.912Z,57.90
2017-05-18T02:54:32.843Z,57.90
2017-05-18T02:57:01.138Z,58.60
2017-05-18T02:59:29.180Z,59.40
2017-05-18T03:01:57.509Z,59.00
2017-05-18T03:04:28.213Z,59.40
2017-05-18T03:06:56.567Z,60.10
2017-05-18T03:09:25.607Z,60.70
2017-05-18T03:11:53.905Z,59.30
2017-05-18T03:14:21.875Z,59.30
2017-05-18T03:16:50.171Z,59.80
2017-05-18T03:19:18.474Z,59.50
2017-05-18T03:21:47.562Z,60.10
2017-05-18T03:26:45.115Z,61.20
2017-05-18T03:31:42.735Z,60.50
2017-05-18T03:34:11.058Z,61.40
2017-05-18T03:36:40.205Z,61.00
2017-05-18T03:39:08.892Z,61.60
2017-05-18T03:41:37.191Z,61.80
2017-05-18T03:44:06.194Z,62.80
2017-05-18T03:49:03.363Z,62.20
2017-05-18T03:51:31.734Z,61.30
2017-05-18T03:53:59.680Z,63.00
2017-05-18T03:56:27.988Z,62.90
2017-05-18T03:58:56.347Z,61.70
2017-05-18T04:01:25.018Z,63.00
2017-05-18T04:03:53.310Z,63.90
2017-05-18T04:11:36.611Z,63.90
2017-05-18T04:14:04.548Z,64.50
2017-05-18T04:16:32.860Z,64.80
2017-05-18T04:19:00.841Z,64.30
2017-05-18T04:21:28.804Z,64.20
2017-05-18T04:23:57.122Z,64.10
2017-05-18T04:26:25.131Z,64.40
2017-05-18T04:28:54.198Z,63.90
2017-05-18T04:31:23.272Z,64.00
2017-05-18T04:33:51.641Z,65.10
2017-05-18T04:36:19.584Z,65.00
2017-05-18T04:41:16.870Z,65.60
2017-05-18T04:43:45.197Z,66.00
2017-05-18T04:48:42.859Z,66.30
2017-05-18T04:51:11.251Z,67.20
2017-05-18T04:53:39.234Z,67.40
2017-05-18T04:56:07.606Z,68.40
2017-05-18T04:58:35.552Z,68.50
2017-05-18T05:01:03.856Z,70.30
2017-05-18T05:03:32.968Z,69.60
2017-05-18T05:06:00.901Z,70.10
2017-05-18T05:08:29.212Z,71.30
2017-05-18T05:10:57.224Z,72.50
2017-05-18T05:13:25.161Z,73.30
2017-05-18T05:15:53.464Z,73.40
2017-05-18T05:18:21.468Z,73.40
2017-05-18T05:20:49.768Z,75.00
2017-05-18T05:23:18.812Z,76.40
2017-05-18T05:25:47.165Z,77.70
2017-05-18T05:30:44.736Z,79.40
2017-05-18T05:33:13.212Z,81.50
2017-05-18T05:35:41.153Z,83.20
2017-05-18T05:38:09.488Z,83.80
2017-05-18T05:43:06.908Z,86.70
2017-05-18T05:45:35.952Z,87.50
2017-05-18T05:50:32.837Z,86.50
2017-05-18T05:53:01.145Z,87.30
2017-05-18T05:55:29.150Z,87.00
2017-05-18T05:57:57.469Z,87.80
2017-05-18T06:00:25.409Z,88.20
2017-05-18T06:02:54.485Z,88.20
2017-05-18T06:05:22.792Z,90.20
2017-05-18T06:12:48.581Z,88.70
2017-05-18T06:17:46.185Z,88.90
2017-05-18T06:20:15.242Z,88.50
2017-05-18T06:22:43.565Z,89.00
2017-05-18T06:25:12.705Z,88.30
2017-05-18T06:27:40.654Z,87.70
2017-05-18T06:30:08.655Z,87.10
2017-05-18T06:32:37.787Z,89.80
2017-05-18T06:35:06.856Z,88.40
2017-05-18T06:37:35.985Z,87.80
2017-05-18T06:40:03.985Z,87.70
2017-05-18T06:42:32.297Z,87.40
2017-05-18T06:45:00.609Z,87.00
2017-05-18T06:47:29.719Z,87.60
2017-05-18T06:49:58.037Z,86.00
2017-05-18T06:52:26.353Z,86.00
2017-05-18T06:54:54.704Z,86.20
2017-05-18T06:57:23.013Z,86.30
2017-05-18T06:59:50.957Z,85.20
2017-05-18T07:02:19.337Z,85.40
2017-05-18T07:04:48.392Z,84.50
2017-05-18T07:07:16.714Z,83.70
2017-05-18T07:09:45.209Z,84.10
2017-05-18T07:12:13.540Z,84.10
2017-05-18T07:14:42.628Z,82.30
2017-05-18T07:17:11.003Z,83.90
2017-05-18T07:19:38.966Z,82.90
2017-05-18T07:22:07.291Z,83.40
2017-05-18T07:24:35.741Z,83.80
2017-05-18T07:27:03.689Z,82.00
2017-05-18T07:34:30.220Z,81.70
2017-05-18T07:39:28.559Z,80.30
2017-05-18T07:41:56.877Z,80.20
2017-05-18T07:44:25.188Z,81.50
2017-05-18T07:46:54.345Z,81.60
2017-05-18T07:54:21.793Z,80.50
2017-05-18T07:56:50.474Z,81.10
2017-05-18T07:59:18.789Z,83.10
2017-05-18T08:01:46.776Z,77.70
2017-05-18T08:04:15.089Z,76.30
2017-05-18T08:06:43.042Z,76.50
2017-05-18T08:09:11.421Z,75.90
2017-05-18T08:11:39.770Z,75.40
2017-05-18T08:14:07.733Z,74.30
2017-05-18T08:16:36.488Z,75.70
2017-05-18T08:19:04.766Z,73.40
2017-05-18T08:21:32.710Z,71.70
2017-05-18T08:24:00.717Z,72.20
2017-05-18T08:26:29.041Z,73.90
2017-05-18T08:28:58.102Z,73.00
2017-05-18T08:31:26.107Z,72.70
2017-05-18T08:33:54.421Z,73.90
2017-05-18T08:36:22.365Z,72.70
2017-05-18T08:38:50.350Z,73.00
2017-05-18T08:41:18.665Z,73.80
2017-05-18T08:43:46.977Z,72.60
2017-05-18T08:46:15.246Z,73.50
2017-05-18T08:48:43.534Z,72.00
2017-05-18T08:51:12.228Z,72.90
2017-05-18T08:56:09.880Z,72.60
2017-05-18T09:03:35.709Z,73.70
2017-05-18T09:06:03.649Z,74.20
2017-05-18T09:11:02.006Z,74.60
2017-05-18T09:13:29.952Z,75.70
2017-05-18T09:15:58.324Z,75.20
2017-05-18T09:18:26.272Z,74.50
2017-05-18T09:20:54.225Z,76.80
2017-05-18T09:23:22.589Z,76.40
2017-05-18T09:25:50.533Z,74.50
2017-05-18T09:28:18.846Z,75.80
2017-05-18T09:30:47.219Z,76.10
2017-05-18T09:33:15.173Z,74.60
2017-05-18T09:35:43.502Z,75.30
2017-05-18T09:40:41.189Z,75.20
2017-05-18T09:43:09.530Z,75.30
2017-05-18T09:48:06.785Z,76.20
2017-05-18T09:50:34.729Z,77.40
2017-05-18T09:53:03.110Z,78.70
2017-05-18T09:55:31.800Z,79.30
2017-05-18T09:58:00.114Z,79.30
2017-05-18T10:00:28.129Z,78.90
2017-05-18T10:02:56.087Z,78.80
2017-05-18T10:05:24.406Z,79.50
2017-05-18T10:07:52.399Z,79.80
2017-05-18T10:10:20.713Z,79.60
2017-05-18T10:12:49.029Z,79.50
2017-05-18T10:15:17.389Z,80.50
2017-05-18T10:17:45.338Z,80.40
2017-05-18T10:20:13.664Z,81.20
2017-05-18T10:22:42.040Z,81.10
2017-05-18T10:25:10.000Z,82.10
2017-05-18T10:27:38.318Z,82.50
2017-05-18T10:30:06.684Z,83.30
2017-05-18T10:32:34.640Z,84.00
2017-05-18T10:35:02.962Z,83.80
2017-05-18T10:40:00.220Z,84.00
2017-05-18T10:42:28.179Z,83.80
2017-05-18T10:44:56.174Z,84.30
2017-05-18T10:47:24.877Z,85.90
2017-05-18T10:49:53.192Z,86.00
2017-05-18T10:52:21.821Z,86.40
2017-05-18T10:54:50.518Z,86.40
2017-05-18T10:57:19.205Z,87.90
2017-05-18T10:59:48.058Z,87.80
2017-05-18T11:04:46.166Z,88.80
2017-05-18T11:07:15.298Z,88.80
2017-05-18T11:09:43.275Z,89.20
2017-05-18T11:12:11.252Z,88.50
2017-05-18T11:14:39.633Z,88.20
2017-05-18T11:17:07.589Z,88.70
2017-05-18T11:19:35.915Z,89.20
2017-05-18T11:22:03.933Z,88.90
2017-05-18T11:24:31.882Z,87.90
2017-05-18T11:26:59.834Z,87.80
2017-05-18T11:29:28.193Z,87.90
2017-05-18T11:31:56.137Z,88.30
2017-05-18T11:34:24.458Z,88.10
2017-05-18T11:36:52.822Z,87.30
2017-05-18T11:39:21.134Z,87.50
2017-05-18T11:41:49.459Z,87.70
2017-05-18T11:44:17.783Z,89.40
2017-05-18T11:46:45.762Z,88.80
2017-05-18T11:49:14.103Z,88.80
2017-05-18T11:51:42.106Z,88.30
2017-05-18T11:54:10.521Z,88.90
2017-05-18T11:56:39.241Z,88.80
2017-05-18T11:59:07.717Z,89.40
2017-05-18T12:01:35.664Z,89.30
2017-05-18T12:04:04.347Z,90.20
2017-05-18T12:06:32.725Z,90.30
2017-05-18T12:09:01.049Z,90.30
2017-05-18T12:11:29.371Z,90.70
2017-05-18T12:13:58.108Z,90.10
2017-05-18T12:16:26.425Z,90.00
2017-05-18T12:18:54.741Z,90.00
2017-05-18T12:21:23.137Z,90.30
2017-05-18T12:23:51.082Z,90.00
2017-05-18T12:26:19.774Z,90.00
2017-05-18T12:28:47.785Z,89.50
2017-05-18T12:31:16.132Z,90.00
2017-05-18T12:33:44.114Z,91.40
2017-05-18T12:36:13.265Z,91.10
2017-05-18T12:38:41.602Z,90.50
2017-05-18T12:41:09.591Z,89.90
2017-05-18T12:43:37.592Z,90.20
2017-05-18T12:46:05.909Z,87.80
2017-05-18T12:48:34.225Z,88.70
2017-05-18T12:51:02.222Z,88.00
2017-05-18T12:53:30.545Z,87.50
2017-05-18T12:55:58.861Z,87.30
2017-05-18T13:00:56.556Z,83.90
2017-05-18T13:03:24.874Z,84.80
2017-05-18T13:05:53.237Z,85.00
2017-05-18T13:10:50.457Z,85.60
2017-05-18T13:13:18.821Z,85.20
2017-05-18T13:15:46.785Z,85.30
2017-05-18T13:23:13.043Z,82.80
2017-05-18T13:25:41.389Z,84.00
2017-05-18T13:28:09.415Z,84.10
2017-05-18T13:30:37.365Z,82.60
2017-05-18T13:33:05.682Z,84.80
2017-05-18T13:35:34.057Z,86.20
2017-05-18T13:38:02.009Z,83.60
2017-05-18T13:40:30.322Z,84.30
2017-05-18T13:42:58.727Z,83.10
2017-05-18T13:45:26.668Z,85.20
2017-05-18T13:47:54.997Z,86.20
2017-05-18T13:50:23.367Z,83.60
2017-05-18T13:55:20.591Z,85.80
2017-05-18T13:57:48.970Z,84.70
2017-05-18T14:00:16.945Z,84.30
2017-05-18T14:02:44.900Z,84.60
2017-05-18T14:05:13.304Z,82.80
2017-05-18T14:10:10.633Z,84.60
2017-05-18T14:15:08.007Z,82.60
2017-05-18T14:17:36.325Z,84.90
2017-05-18T14:20:04.693Z,81.10
2017-05-18T14:22:33.021Z,84.80
2017-05-18T14:27:31.122Z,77.00
2017-05-18T14:32:28.418Z,81.00
2017-05-18T14:34:56.425Z,81.00
2017-05-18T14:37:24.749Z,80.20
2017-05-18T14:39:52.699Z,80.80
2017-05-18T14:42:20.762Z,80.00
2017-05-18T14:44:48.709Z,79.10
2017-05-18T14:47:17.076Z,81.30
2017-05-18T14:49:45.141Z,78.90
2017-05-18T14:52:13.117Z,79.60
2017-05-18T14:54:41.520Z,80.40
2017-05-18T14:57:09.633Z,79.70
2017-05-18T15:02:06.881Z,78.40
2017-05-18T15:12:02.130Z,77.20
2017-05-18T15:14:31.189Z,77.90
2017-05-18T15:17:00.329Z,79.50
2017-05-18T15:19:28.718Z,79.90
2017-05-18T15:21:57.839Z,77.60
2017-05-18T15:24:26.521Z,77.60
2017-05-18T15:26:55.497Z,78.50
2017-05-18T15:29:23.832Z,79.80
2017-05-18T15:34:21.930Z,80.30
2017-05-18T15:36:50.269Z,80.40
2017-05-18T15:39:19.329Z,80.80
2017-05-18T15:41:48.089Z,82.70
2017-05-18T15:44:16.769Z,84.40
2017-05-18T15:46:45.139Z,84.70
2017-05-18T15:49:14.289Z,84.40
2017-05-18T15:51:42.650Z,84.20
2017-05-18T15:54:11.005Z,84.80
2017-05-18T15:56:39.046Z,85.80
2017-05-18T15:59:08.393Z,85.60
2017-05-18T16:04:05.678Z,85.90
2017-05-18T16:06:34.737Z,85.00
2017-05-18T16:09:02.690Z,83.80
2017-05-18T16:11:30.689Z,84.10
2017-05-18T16:13:59.079Z,84.60
2017-05-18T16:16:27.053Z,85.40
2017-05-18T16:18:55.069Z,84.90
2017-05-18T16:21:23.389Z,86.40
2017-05-18T16:23:51.710Z,86.60
2017-05-18T16:26:20.914Z,86.60
2017-05-18T16:28:49.968Z,86.30
2017-05-18T16:31:18.292Z,86.20
2017-05-18T16:33:46.689Z,87.00
2017-05-18T16:36:14.651Z,87.00
2017-05-18T16:38:42.984Z,87.40
2017-05-18T16:41:11.414Z,87.00
2017-05-18T16:43:39.379Z,86.70
2017-05-18T16:46:08.513Z,87.60
2017-05-18T16:48:36.812Z,88.10
2017-05-18T16:51:04.768Z,87.50
2017-05-18T16:53:32.715Z,87.70
2017-05-18T16:56:00.709Z,88.00
2017-05-18T16:58:29.037Z,87.50
2017-05-18T17:00:56.994Z,86.30
2017-05-18T17:03:25.746Z,86.60
2017-05-18T17:08:23.689Z,88.00
2017-05-18T17:10:52.793Z,89.20
2017-05-18T17:15:50.749Z,88.80
2017-05-18T17:18:18.771Z,88.10
2017-05-18T17:20:47.880Z,88.90
2017-05-18T17:23:15.821Z,87.50
2017-05-18T17:30:42.464Z,87.50
2017-05-18T17:33:10.475Z,87.80
2017-05-18T17:35:38.809Z,88.00
2017-05-18T17:38:06.756Z,86.70
2017-05-18T17:40:34.756Z,87.60
2017-05-18T17:43:03.069Z,87.70
2017-05-18T17:45:31.013Z,87.50
2017-05-18T17:47:59.700Z,86.40
2017-05-18T17:50:27.654Z,87.40
2017-05-18T17:52:56.718Z,87.60
2017-05-18T17:57:54.394Z,87.90
2017-05-18T18:02:52.029Z,88.40
2017-05-18T18:07:49.229Z,89.40
2017-05-18T18:10:18.346Z,89.10
2017-05-18T18:12:47.035Z,89.50
2017-05-18T18:17:44.675Z,86.90
2017-05-18T18:20:12.633Z,87.60
2017-05-18T18:22:40.957Z,88.20
2017-05-18T18:25:08.978Z,88.30
2017-05-18T18:27:36.970Z,89.10
2017-05-18T18:30:05.667Z,88.60
2017-05-18T18:32:34.050Z,88.80
2017-05-18T18:35:01.996Z,88.90
2017-05-18T18:37:29.951Z,88.40
2017-05-18T18:39:58.333Z,88.80
2017-05-18T18:44:55.550Z,87.50
2017-05-18T18:47:23.946Z,86.40
2017-05-18T18:49:51.885Z,87.00
2017-05-18T18:52:20.945Z,88.20
2017-05-18T18:54:50.061Z,88.20
2017-05-18T18:57:18.376Z,87.80
2017-05-18T18:59:46.701Z,88.30
2017-05-18T19:02:15.091Z,89.10
2017-05-18T19:04:43.457Z,89.30
2017-05-18T19:07:11.788Z,88.80
2017-05-18T19:09:40.923Z,89.50
2017-05-18T19:12:09.269Z,89.20
2017-05-18T19:14:37.968Z,89.70
2017-05-18T19:17:06.001Z,89.20
2017-05-18T19:19:34.329Z,89.60
2017-05-18T19:22:02.324Z,89.10
2017-05-18T19:24:31.065Z,90.00
2017-05-18T19:26:59.385Z,90.20
2017-05-18T19:29:27.714Z,90.10
2017-05-18T19:31:56.701Z,90.30
2017-05-18T19:34:25.257Z,90.30
2017-05-18T19:36:53.958Z,90.10
2017-05-18T19:41:51.236Z,90.50
2017-05-18T19:44:19.547Z,90.40
2017-05-18T19:46:48.665Z,90.20
2017-05-18T19:49:17.004Z,89.40
2017-05-18T19:51:44.997Z,89.80
2017-05-18T19:54:13.413Z,90.20
2017-05-18T19:56:42.489Z,90.80
2017-05-18T20:01:39.862Z,90.20
2017-05-18T20:04:08.221Z,90.10
2017-05-18T20:06:36.187Z,90.50
2017-05-18T20:09:04.570Z,90.70
2017-05-18T20:11:33.632Z,90.60
2017-05-18T20:14:01.581Z,90.50
2017-05-18T20:16:30.335Z,90.60
2017-05-18T20:23:56.160Z,90.50
2017-05-18T20:26:24.116Z,90.30
2017-05-18T20:28:52.438Z,90.30
2017-05-18T20:31:20.815Z,90.60
2017-05-18T20:33:48.777Z,90.60
2017-05-18T20:41:15.720Z,90.50
2017-05-18T20:43:43.709Z,90.50
2017-05-18T20:46:12.108Z,90.90
2017-05-18T20:48:40.476Z,90.70
2017-05-18T20:53:37.433Z,91.10
2017-05-18T20:56:05.397Z,91.20
2017-05-18T20:58:33.728Z,91.60
2017-05-18T21:01:01.741Z,91.70
2017-05-18T21:03:30.057Z,91.80
2017-05-18T21:08:27.351Z,92.30
2017-05-18T21:10:56.435Z,92.00
2017-05-18T21:13:25.132Z,92.20
2017-05-18T21:18:23.141Z,92.10
2017-05-18T21:20:51.453Z,92.00
2017-05-18T21:23:19.841Z,92.00
2017-05-18T21:25:47.784Z,91.80
2017-05-18T21:30:45.061Z,92.40
2017-05-18T21:33:13.374Z,92.00
2017-05-18T21:35:41.321Z,92.20
2017-05-18T21:38:09.710Z,92.10
2017-05-18T21:40:38.044Z,92.00
2017-05-18T21:43:07.328Z,92.20
2017-05-18T21:48:05.849Z,91.90
2017-05-18T21:50:34.169Z,91.90
2017-05-18T21:53:02.179Z,91.70
2017-05-18T21:55:30.497Z,91.60
2017-05-18T21:57:59.555Z,91.50
2017-05-18T22:02:57.226Z,91.40
2017-05-18T22:07:54.881Z,91.30
2017-05-18T22:10:22.829Z,91.40
2017-05-18T22:17:49.377Z,91.40
2017-05-18T22:20:17.337Z,91.40
2017-05-18T22:22:45.713Z,91.30
2017-05-18T22:25:13.660Z,91.30
2017-05-18T22:27:41.991Z,91.40
2017-05-18T22:30:10.038Z,91.30
2017-05-18T22:32:37.997Z,91.40
2017-05-18T22:35:06.329Z,91.50
2017-05-18T22:37:34.330Z,91.50
2017-05-18T22:40:02.649Z,91.80
2017-05-18T22:42:30.965Z,91.80
2017-05-18T22:44:59.346Z,91.60
2017-05-18T22:47:27.303Z,91.50
2017-05-18T22:49:55.634Z,91.40
2017-05-18T22:52:24.024Z,91.30
2017-05-18T22:54:51.972Z,91.30
2017-05-18T22:57:20.285Z,91.40
2017-05-18T22:59:49.012Z,91.30
2017-05-18T23:02:16.959Z,91.10
2017-05-18T23:04:45.273Z,91.20
2017-05-18T23:07:16.105Z,91.50
2017-05-18T23:12:14.068Z,91.10
2017-05-18T23:14:42.073Z,90.90
2017-05-18T23:17:10.045Z,91.10
2017-05-18T23:19:38.382Z,91.20
2017-05-18T23:22:07.180Z,91.30
2017-05-18T23:24:35.874Z,91.20
2017-05-18T23:27:04.932Z,91.30
2017-05-18T23:29:33.296Z,91.50
2017-05-18T23:32:01.609Z,91.20
2017-05-18T23:34:30.673Z,91.40
2017-05-18T23:41:57.196Z,91.50
2017-05-18T23:44:25.240Z,91.60
2017-05-18T23:46:53.189Z,91.70
2017-05-18T23:49:22.247Z,92.10
2017-05-18T23:51:50.608Z,92.10
2017-05-18T23:56:48.557Z,92.00
2017-05-18T23:59:16.923Z,92.00
